createdAt,value
2022-11-01T00:01:50.793Z,100462.78
2022-11-01T00:04:17.901Z,100457.28
2022-11-01T00:06:48.853Z,100466.13
2022-11-01T00:09:18.278Z,100462.75
2022-11-01T00:11:44.710Z,100473.28
2022-11-01T00:14:13.857Z,100481.75
2022-11-01T00:16:40.498Z,100496.88
2022-11-01T00:19:12.529Z,100489.72
2022-11-01T00:21:38.912Z,100496.88
2022-11-01T00:24:05.596Z,100493.88
2022-11-01T00:26:32.131Z,100486.34
2022-11-01T00:28:58.592Z,100495.19
2022-11-01T00:31:29.917Z,100492.44
2022-11-01T00:33:58.835Z,100490.59
2022-11-01T00:36:25.253Z,100491.25
2022-11-01T00:38:52.548Z,100485.78
2022-11-01T00:41:20.772Z,100486.00
2022-11-01T00:43:47.862Z,100478.44
2022-11-01T00:46:17.424Z,100485.59
2022-11-01T00:48:49.334Z,100472.56
2022-11-01T00:51:15.818Z,100461.59
2022-11-01T00:53:42.400Z,100458.75
2022-11-01T00:56:08.777Z,100452.44
2022-11-01T00:58:35.507Z,100454.75
2022-11-01T01:01:02.011Z,100449.69
2022-11-01T01:03:28.459Z,100444.88
2022-11-01T01:05:55.120Z,100449.53
2022-11-01T01:08:22.430Z,100441.06
2022-11-01T01:10:49.369Z,100439.63
2022-11-01T01:13:18.493Z,100441.06
2022-11-01T01:15:45.358Z,100435.19
2022-11-01T01:18:14.543Z,100428.66
2022-11-01T01:20:40.934Z,100438.56
2022-11-01T01:23:07.386Z,100434.16
2022-11-01T01:25:33.828Z,100434.63
2022-11-01T01:28:02.888Z,100437.75
2022-11-01T01:30:29.508Z,100443.22
2022-11-01T01:32:58.094Z,100437.97
2022-11-01T01:35:24.603Z,100441.31
2022-11-01T01:37:50.999Z,100439.63
2022-11-01T01:40:17.423Z,100431.63
2022-11-01T01:42:43.916Z,100428.47
2022-11-01T01:45:29.443Z,100429.28
2022-11-01T01:48:03.378Z,100419.16
2022-11-01T01:50:35.661Z,100419.59
2022-11-01T01:53:14.076Z,100425.25
2022-11-01T01:56:07.638Z,100421.69
2022-11-01T01:58:54.933Z,100422.94
2022-11-01T02:01:21.596Z,100426.75
2022-11-01T02:03:48.817Z,100428.00
2022-11-01T02:06:20.714Z,100423.34
2022-11-01T02:08:51.553Z,100427.16
2022-11-01T02:11:19.264Z,100426.09
2022-11-01T02:13:45.965Z,100434.31
2022-11-01T02:17:07.168Z,100438.75
2022-11-01T02:19:54.588Z,100428.84
2022-11-01T02:22:52.072Z,100433.69
2022-11-01T02:25:45.585Z,100444.88
2022-11-01T02:28:48.947Z,100436.66
2022-11-01T02:32:01.246Z,100450.78
2022-11-01T02:35:05.993Z,100455.03
2022-11-01T02:37:48.073Z,100457.16
2022-11-01T02:40:24.407Z,100460.75
2022-11-01T02:42:57.188Z,100458.44
2022-11-01T02:45:35.004Z,100457.41
2022-11-01T02:48:02.853Z,100474.44
2022-11-01T02:50:49.735Z,100489.19
2022-11-01T02:53:18.550Z,100513.00
2022-11-01T02:55:47.377Z,100527.53
2022-11-01T02:58:27.813Z,100525.47
2022-11-01T03:00:56.743Z,100536.41
2022-11-01T03:04:18.438Z,100515.53
2022-11-01T03:06:52.679Z,100521.88
2022-11-01T03:09:19.188Z,100533.03
2022-11-01T03:11:57.175Z,100515.72
2022-11-01T03:14:37.983Z,100506.88
2022-11-01T03:17:19.048Z,100499.94
2022-11-01T03:20:06.947Z,100514.88
2022-11-01T03:23:02.439Z,100517.38
2022-11-01T03:25:40.829Z,100516.94
2022-11-01T03:28:19.233Z,100514.41
2022-11-01T03:30:49.741Z,100507.88
2022-11-01T03:33:18.372Z,100503.44
2022-11-01T03:35:48.398Z,100493.34
2022-11-01T03:38:19.781Z,100497.97
2022-11-01T03:40:54.928Z,100493.34
2022-11-01T03:43:25.802Z,100492.94
2022-11-01T03:45:52.464Z,100485.13
2022-11-01T03:48:18.951Z,100492.91
2022-11-01T03:50:50.095Z,100501.31
2022-11-01T03:53:21.798Z,100503.25
2022-11-01T03:55:48.318Z,100505.34
2022-11-01T03:58:14.951Z,100505.16
2022-11-01T04:00:44.067Z,100521.78
2022-11-01T04:03:12.283Z,100505.78
2022-11-01T04:05:43.132Z,100507.47
2022-11-01T04:08:11.262Z,100524.09
2022-11-01T04:10:37.790Z,100524.94
2022-11-01T04:13:06.701Z,100529.38
2022-11-01T04:15:51.425Z,100536.56
2022-11-01T04:18:37.277Z,100538.03
2022-11-01T04:21:06.935Z,100545.22
2022-11-01T04:23:33.965Z,100552.41
2022-11-01T04:26:01.027Z,100551.53
2022-11-01T04:28:29.805Z,100553.88
2022-11-01T04:30:56.247Z,100569.25
2022-11-01T04:33:22.690Z,100570.09
2022-11-01T04:35:49.519Z,100567.56
2022-11-01T04:38:16.405Z,100572.63
2022-11-01T04:40:48.155Z,100565.69
2022-11-01T04:43:15.867Z,100570.34
2022-11-01T04:45:42.297Z,100579.41
2022-11-01T04:48:15.943Z,100581.09
2022-11-01T04:50:47.237Z,100574.97
2022-11-01T04:53:13.778Z,100565.50
2022-11-01T04:55:42.624Z,100548.00
2022-11-01T04:58:10.773Z,100565.50
2022-11-01T05:00:38.411Z,100560.41
2022-11-01T05:03:11.321Z,100566.75
2022-11-01T05:05:39.113Z,100566.97
2022-11-01T05:08:09.912Z,100566.13
2022-11-01T05:10:42.222Z,100560.63
2022-11-01T05:13:12.179Z,100569.69
2022-11-01T05:15:59.742Z,100572.63
2022-11-01T05:18:29.920Z,100568.00
2022-11-01T05:20:59.771Z,100562.53
2022-11-01T05:23:28.396Z,100567.59
2022-11-01T05:25:57.052Z,100570.16
2022-11-01T05:28:26.426Z,100581.72
2022-11-01T05:30:52.812Z,100595.84
2022-11-01T05:33:19.196Z,100606.13
2022-11-01T05:35:45.717Z,100598.13
2022-11-01T05:38:12.122Z,100600.88
2022-11-01T05:40:38.844Z,100603.19
2022-11-01T05:43:05.551Z,100597.88
2022-11-01T05:45:32.195Z,100612.66
2022-11-01T05:48:03.429Z,100618.56
2022-11-01T05:50:32.323Z,100629.72
2022-11-01T05:53:08.731Z,100636.91
2022-11-01T05:55:35.838Z,100642.59
2022-11-01T05:58:02.484Z,100643.66
2022-11-01T06:00:28.914Z,100650.19
2022-11-01T06:03:02.548Z,100651.03
2022-11-01T06:05:29.946Z,100658.00
2022-11-01T06:07:56.477Z,100664.31
2022-11-01T06:10:23.402Z,100667.69
2022-11-01T06:12:55.974Z,100672.13
2022-11-01T06:15:22.696Z,100673.19
2022-11-01T06:17:55.377Z,100672.97
2022-11-01T06:20:21.773Z,100678.06
2022-11-01T06:22:50.513Z,100684.19
2022-11-01T06:25:16.981Z,100681.25
2022-11-01T06:27:44.562Z,100679.34
2022-11-01T06:30:11.397Z,100683.38
2022-11-01T06:32:40.384Z,100698.38
2022-11-01T06:35:07.146Z,100705.56
2022-11-01T06:37:33.543Z,100697.56
2022-11-01T06:39:59.948Z,100698.63
2022-11-01T06:42:28.454Z,100705.84
2022-11-01T06:44:57.114Z,100702.66
2022-11-01T06:47:23.610Z,100711.53
2022-11-01T06:49:50.072Z,100705.84
2022-11-01T06:52:16.734Z,100714.25
2022-11-01T06:54:48.023Z,100718.50
2022-11-01T06:57:19.534Z,100730.97
2022-11-01T06:59:45.877Z,100733.47
2022-11-01T07:02:14.576Z,100737.06
2022-11-01T07:04:41.412Z,100736.03
2022-11-01T07:07:07.836Z,100741.97
2022-11-01T07:09:35.242Z,100744.72
2022-11-01T07:12:01.645Z,100753.78
2022-11-01T07:14:28.078Z,100767.50
2022-11-01T07:16:54.544Z,100763.91
2022-11-01T07:19:22.369Z,100756.97
2022-11-01T07:21:48.718Z,100758.00
2022-11-01T07:24:15.394Z,100775.31
2022-11-01T07:26:41.741Z,100767.72
2022-11-01T07:29:08.107Z,100766.66
2022-11-01T07:31:35.110Z,100762.66
2022-11-01T07:34:01.975Z,100770.53
2022-11-01T07:36:28.319Z,100768.22
2022-11-01T07:38:54.744Z,100783.59
2022-11-01T07:41:21.159Z,100788.03
2022-11-01T07:43:47.534Z,100789.75
2022-11-01T07:46:17.089Z,100784.28
2022-11-01T07:48:45.728Z,100788.34
2022-11-01T07:51:12.196Z,100793.84
2022-11-01T07:53:38.820Z,100788.41
2022-11-01T07:56:07.944Z,100789.53
2022-11-01T07:58:34.426Z,100798.00
2022-11-01T08:01:01.365Z,100780.72
2022-11-01T08:03:27.875Z,100790.03
2022-11-01T08:05:56.577Z,100782.69
2022-11-01T08:08:23.007Z,100777.22
2022-11-01T08:10:49.538Z,100775.75
2022-11-01T08:13:24.062Z,100785.03
2022-11-01T08:15:52.345Z,100784.66
2022-11-01T08:18:22.311Z,100782.53
2022-11-01T08:20:49.256Z,100780.47
2022-11-01T08:23:15.706Z,100782.16
2022-11-01T08:25:42.286Z,100780.47
2022-11-01T08:28:14.194Z,100779.22
2022-11-01T08:30:42.181Z,100783.88
2022-11-01T08:33:08.699Z,100786.63
2022-11-01T08:35:35.273Z,100790.03
2022-11-01T08:38:03.493Z,100787.28
2022-11-01T08:40:31.616Z,100784.34
2022-11-01T08:42:58.169Z,100776.72
2022-11-01T08:45:27.892Z,100781.78
2022-11-01T08:48:03.540Z,100782.66
2022-11-01T08:50:30.869Z,100788.56
2022-11-01T08:52:57.399Z,100789.63
2022-11-01T08:55:24.114Z,100793.25
2022-11-01T08:57:50.738Z,100788.56
2022-11-01T09:00:18.313Z,100792.16
2022-11-01T09:02:44.796Z,100793.25
2022-11-01T09:05:11.375Z,100798.97
2022-11-01T09:07:38.608Z,100802.56
2022-11-01T09:10:06.688Z,100807.88
2022-11-01T09:12:35.836Z,100801.94
2022-11-01T09:15:03.333Z,100798.53
2022-11-01T09:17:32.830Z,100815.25
2022-11-01T09:19:59.263Z,100814.84
2022-11-01T09:22:26.463Z,100825.63
2022-11-01T09:24:55.391Z,100819.25
2022-11-01T09:27:21.809Z,100821.63
2022-11-01T09:29:51.078Z,100825.41
2022-11-01T09:32:23.313Z,100825.41
2022-11-01T09:34:49.734Z,100828.34
2022-11-01T09:37:18.640Z,100830.69
2022-11-01T09:39:45.034Z,100842.97
2022-11-01T09:42:32.306Z,100844.84
2022-11-01T09:45:04.164Z,100842.09
2022-11-01T09:47:31.820Z,100847.75
2022-11-01T09:50:17.892Z,100854.94
2022-11-01T09:52:44.506Z,100864.47
2022-11-01T09:55:24.874Z,100864.69
2022-11-01T09:58:02.153Z,100874.22
2022-11-01T10:00:43.634Z,100876.78
2022-11-01T10:03:24.691Z,100875.94
2022-11-01T10:05:59.066Z,100876.53
2022-11-01T10:08:54.988Z,100880.16
2022-11-01T10:12:00.153Z,100885.66
2022-11-01T10:14:48.396Z,100890.78
2022-11-01T10:17:36.979Z,100883.69
2022-11-01T10:20:04.305Z,100886.56
2022-11-01T10:22:36.990Z,100887.03
2022-11-01T10:25:26.076Z,100888.09
2022-11-01T10:27:58.100Z,100892.16
2022-11-01T10:30:33.235Z,100893.41
2022-11-01T10:33:06.512Z,100900.88
2022-11-01T10:35:38.625Z,100905.97
2022-11-01T10:38:49.649Z,100909.81
2022-11-01T10:41:21.377Z,100921.03
2022-11-01T10:43:59.510Z,100919.16
2022-11-01T10:46:40.493Z,100926.97
2022-11-01T10:49:20.166Z,100919.97
2022-11-01T10:51:49.701Z,100930.78
2022-11-01T10:54:23.916Z,100899.66
2022-11-01T10:56:56.467Z,100908.75
2022-11-01T10:59:29.239Z,100903.91
2022-11-01T11:01:57.112Z,100900.50
2022-11-01T11:04:24.966Z,100910.25
2022-11-01T11:06:51.931Z,100904.13
2022-11-01T11:09:28.137Z,100911.31
2022-11-01T11:11:58.824Z,100910.44
2022-11-01T11:14:27.492Z,100901.97
2022-11-01T11:16:57.994Z,100905.59
2022-11-01T11:19:33.761Z,100910.44
2022-11-01T11:22:02.464Z,100918.84
2022-11-01T11:24:28.798Z,100917.56
2022-11-01T11:26:58.253Z,100919.88
2022-11-01T11:29:38.868Z,100919.31
2022-11-01T11:32:13.946Z,100926.72
2022-11-01T11:34:41.595Z,100904.84
2022-11-01T11:37:16.831Z,100904.44
2022-11-01T11:40:06.039Z,100920.16
2022-11-01T11:42:34.877Z,100911.66
2022-11-01T11:45:16.393Z,100899.22
2022-11-01T11:47:43.595Z,100905.38
2022-11-01T11:50:23.698Z,100903.22
2022-11-01T11:53:22.190Z,100902.38
2022-11-01T11:55:55.313Z,100914.69
2022-11-01T11:58:25.799Z,100903.47
2022-11-01T12:00:58.976Z,100907.47
2022-11-01T12:03:25.976Z,100908.31
2022-11-01T12:05:59.658Z,100912.56
2022-11-01T12:08:48.424Z,100911.50
2022-11-01T12:11:15.665Z,100918.91
2022-11-01T12:14:02.883Z,100930.56
2022-11-01T12:16:30.035Z,100917.22
2022-11-01T12:19:01.231Z,100913.84
2022-11-01T12:21:36.668Z,100914.69
2022-11-01T12:24:14.823Z,100921.47
2022-11-01T12:26:42.471Z,100914.28
2022-11-01T12:29:30.190Z,100914.03
2022-11-01T12:32:03.972Z,100907.50
2022-11-01T12:34:41.533Z,100904.09
2022-11-01T12:37:19.415Z,100908.31
2022-11-01T12:40:07.925Z,100894.81
2022-11-01T12:42:40.630Z,100915.09
2022-11-01T12:45:21.456Z,100900.28
2022-11-01T12:47:57.409Z,100916.38
2022-11-01T12:50:36.948Z,100908.13
2022-11-01T12:53:10.579Z,100911.50
2022-11-01T12:55:38.025Z,100933.56
2022-11-01T12:58:13.045Z,100897.13
2022-11-01T13:00:50.171Z,100906.22
2022-11-01T13:03:57.769Z,100922.75
2022-11-01T13:06:48.457Z,100919.16
2022-11-01T13:09:52.254Z,100922.13
2022-11-01T13:12:27.533Z,100920.63
2022-11-01T13:15:25.639Z,100918.53
2022-11-01T13:18:19.683Z,100921.03
2022-11-01T13:20:52.531Z,100906.44
2022-11-01T13:23:46.422Z,100911.72
2022-11-01T13:26:21.085Z,100898.63
2022-11-01T13:29:28.744Z,100909.84
2022-11-01T13:32:05.299Z,100902.41
2022-11-01T13:35:05.279Z,100904.97
2022-11-01T13:37:37.642Z,100904.75
2022-11-01T13:40:37.221Z,100904.94
2022-11-01T13:43:16.535Z,100898.38
2022-11-01T13:46:01.445Z,100899.19
2022-11-01T13:49:02.874Z,100911.47
2022-11-01T13:51:35.165Z,100910.44
2022-11-01T13:54:10.895Z,100915.50
2022-11-01T13:56:46.363Z,100920.13
2022-11-01T13:59:15.453Z,100920.09
2022-11-01T14:01:44.282Z,100915.84
2022-11-01T14:04:13.790Z,100927.72
2022-11-01T14:06:51.323Z,100931.13
2022-11-01T14:09:17.703Z,100925.66
2022-11-01T14:11:49.987Z,100941.72
2022-11-01T14:14:31.553Z,100932.00
2022-11-01T14:17:16.106Z,100927.97
2022-11-01T14:19:43.475Z,100930.66
2022-11-01T14:22:22.028Z,100914.75
2022-11-01T14:25:21.695Z,100939.94
2022-11-01T14:27:51.910Z,100935.41
2022-11-01T14:30:23.196Z,100936.06
2022-11-01T14:33:13.648Z,100932.66
2022-11-01T14:35:43.703Z,100934.34
2022-11-01T14:38:15.809Z,100938.31
2022-11-01T14:40:50.152Z,100934.28
2022-11-01T14:43:24.947Z,100929.19
2022-11-01T14:45:58.546Z,100926.69
2022-11-01T14:48:54.432Z,100936.59
2022-11-01T14:51:32.074Z,100938.91
2022-11-01T14:54:28.912Z,100924.72
2022-11-01T14:56:57.627Z,100930.19
2022-11-01T14:59:25.643Z,100929.38
2022-11-01T15:02:02.104Z,100933.34
2022-11-01T15:04:31.903Z,100934.81
2022-11-01T15:07:02.570Z,100925.69
2022-11-01T15:09:31.462Z,100934.47
2022-11-01T15:12:13.667Z,100935.69
2022-11-01T15:14:41.428Z,100939.41
2022-11-01T15:17:20.482Z,100948.03
2022-11-01T15:19:48.126Z,100933.75
2022-11-01T15:22:20.800Z,100939.38
2022-11-01T15:24:53.822Z,100951.91
2022-11-01T15:27:21.354Z,100950.16
2022-11-01T15:29:51.460Z,100937.25
2022-11-01T15:32:30.362Z,100939.84
2022-11-01T15:35:04.221Z,100941.50
2022-11-01T15:37:33.188Z,100944.63
2022-11-01T15:40:01.131Z,100938.38
2022-11-01T15:42:32.086Z,100937.66
2022-11-01T15:45:18.396Z,100943.66
2022-11-01T15:47:46.379Z,100944.81
2022-11-01T15:50:13.377Z,100951.69
2022-11-01T15:52:40.174Z,100945.50
2022-11-01T15:55:19.081Z,100944.94
2022-11-01T15:57:53.431Z,100950.91
2022-11-01T16:00:22.272Z,100950.81
2022-11-01T16:02:54.853Z,100955.53
2022-11-01T16:05:27.251Z,100958.19
2022-11-01T16:07:56.577Z,100954.41
2022-11-01T16:10:26.121Z,100954.78
2022-11-01T16:12:56.664Z,100950.84
2022-11-01T16:15:23.034Z,100951.56
2022-11-01T16:17:49.619Z,100956.16
2022-11-01T16:20:52.389Z,100948.72
2022-11-01T16:23:30.377Z,100954.81
2022-11-01T16:26:17.171Z,100963.94
2022-11-01T16:28:46.877Z,100962.50
2022-11-01T16:31:25.969Z,100975.41
2022-11-01T16:33:53.924Z,100973.38
2022-11-01T16:36:20.324Z,100978.19
2022-11-01T16:38:51.980Z,100990.69
2022-11-01T16:41:21.526Z,100986.13
2022-11-01T16:43:59.497Z,100985.28
2022-11-01T16:46:29.228Z,100990.63
2022-11-01T16:49:16.639Z,100999.38
2022-11-01T16:51:42.998Z,101000.09
2022-11-01T16:54:12.734Z,101003.72
2022-11-01T16:56:42.051Z,100998.97
2022-11-01T16:59:22.625Z,101005.34
2022-11-01T17:01:49.977Z,101009.44
2022-11-01T17:04:18.977Z,101021.91
2022-11-01T17:06:45.442Z,101017.16
2022-11-01T17:09:13.190Z,101029.31
2022-11-01T17:11:46.460Z,101022.66
2022-11-01T17:14:17.541Z,101026.94
2022-11-01T17:16:48.205Z,101025.59
2022-11-01T17:19:35.709Z,101024.41
2022-11-01T17:22:06.853Z,101030.88
2022-11-01T17:24:33.665Z,101024.75
2022-11-01T17:27:05.622Z,101037.75
2022-11-01T17:29:34.787Z,101032.97
2022-11-01T17:32:02.826Z,101028.88
2022-11-01T17:34:29.474Z,101037.06
2022-11-01T17:36:57.243Z,101039.78
2022-11-01T17:39:28.787Z,101038.47
2022-11-01T17:41:55.779Z,101044.44
2022-11-01T17:44:23.135Z,101049.03
2022-11-01T17:46:49.589Z,101046.66
2022-11-01T17:49:16.685Z,101054.31
2022-11-01T17:51:45.411Z,101052.09
2022-11-01T17:54:11.958Z,101055.16
2022-11-01T17:56:40.819Z,101055.69
2022-11-01T17:59:08.618Z,101064.00
2022-11-01T18:01:36.996Z,101054.16
2022-11-01T18:04:04.037Z,101060.25
2022-11-01T18:06:30.482Z,101048.84
2022-11-01T18:08:57.238Z,101050.72
2022-11-01T18:11:58.211Z,101056.63
2022-11-01T18:14:56.168Z,101062.28
2022-11-01T18:17:41.451Z,101065.84
2022-11-01T18:20:17.981Z,101077.25
2022-11-01T18:22:53.077Z,101076.56
2022-11-01T18:25:31.408Z,101085.06
2022-11-01T18:28:03.148Z,101069.91
2022-11-01T18:30:30.125Z,101074.47
2022-11-01T18:33:08.553Z,101073.44
2022-11-01T18:35:42.047Z,101073.44
2022-11-01T18:38:30.888Z,101069.53
2022-11-01T18:41:00.358Z,101068.50
2022-11-01T18:43:34.992Z,101075.78
2022-11-01T18:46:27.189Z,101069.63
2022-11-01T18:48:59.626Z,101068.28
2022-11-01T18:51:32.255Z,101062.31
2022-11-01T18:54:11.050Z,101072.16
2022-11-01T18:56:43.417Z,101072.34
2022-11-01T18:59:14.934Z,101073.84
2022-11-01T19:01:41.538Z,101063.47
2022-11-01T19:04:18.821Z,101063.94
2022-11-01T19:06:45.202Z,101060.56
2022-11-01T19:09:30.224Z,101071.25
2022-11-01T19:12:00.876Z,101074.66
2022-11-01T19:14:32.239Z,101069.69
2022-11-01T19:16:59.026Z,101076.69
2022-11-01T19:19:25.442Z,101075.31
2022-11-01T19:21:59.454Z,101068.81
2022-11-01T19:24:34.315Z,101071.16
2022-11-01T19:27:02.775Z,101081.38
2022-11-01T19:29:33.906Z,101081.38
2022-11-01T19:32:03.797Z,101076.06
2022-11-01T19:34:36.566Z,101067.59
2022-11-01T19:37:08.327Z,101075.16
2022-11-01T19:39:41.538Z,101078.22
2022-11-01T19:42:24.980Z,101064.56
2022-11-01T19:44:56.318Z,101076.44
2022-11-01T19:47:30.105Z,101075.78
2022-11-01T19:49:56.477Z,101075.91
2022-11-01T19:52:29.976Z,101081.53
2022-11-01T19:54:56.451Z,101076.72
2022-11-01T19:57:34.689Z,101068.34
2022-11-01T20:00:24.892Z,101085.53
2022-11-01T20:02:57.226Z,101079.09
2022-11-01T20:05:33.411Z,101078.31
2022-11-01T20:08:06.334Z,101080.22
2022-11-01T20:10:35.198Z,101083.94
2022-11-01T20:13:01.863Z,101082.69
2022-11-01T20:15:29.050Z,101082.69
2022-11-01T20:17:55.614Z,101089.16
2022-11-01T20:20:25.049Z,101086.97
2022-11-01T20:23:06.029Z,101098.13
2022-11-01T20:25:42.309Z,101100.50
2022-11-01T20:28:11.133Z,101109.50
2022-11-01T20:30:37.600Z,101104.34
2022-11-01T20:33:04.627Z,101111.38
2022-11-01T20:35:31.254Z,101111.50
2022-11-01T20:37:58.067Z,101109.78
2022-11-01T20:40:25.333Z,101118.13
2022-11-01T20:42:52.498Z,101119.34
2022-11-01T20:45:18.903Z,101122.78
2022-11-01T20:47:50.149Z,101127.34
2022-11-01T20:50:17.656Z,101135.91
2022-11-01T20:52:44.378Z,101124.84
2022-11-01T20:55:12.450Z,101129.75
2022-11-01T20:57:38.948Z,101128.66
2022-11-01T21:00:07.431Z,101126.16
2022-11-01T21:02:34.573Z,101131.06
2022-11-01T21:05:14.190Z,101137.03
2022-11-01T21:07:46.875Z,101144.84
2022-11-01T21:10:31.750Z,101137.22
2022-11-01T21:13:00.487Z,101135.91
2022-11-01T21:15:33.752Z,101143.81
2022-11-01T21:18:12.134Z,101134.09
2022-11-01T21:20:44.854Z,101139.00
2022-11-01T21:23:17.318Z,101147.56
2022-11-01T21:25:48.150Z,101146.47
2022-11-01T21:28:34.299Z,101148.66
2022-11-01T21:31:27.783Z,101139.94
2022-11-01T21:33:56.672Z,101146.38
2022-11-01T21:36:32.448Z,101155.22
2022-11-01T21:39:00.856Z,101146.38
2022-11-01T21:41:31.558Z,101157.81
2022-11-01T21:44:02.288Z,101150.34
2022-11-01T21:46:35.064Z,101154.63
2022-11-01T21:49:01.494Z,101152.44
2022-11-01T21:51:32.432Z,101153.66
2022-11-01T21:54:01.698Z,101157.94
2022-11-01T21:56:33.462Z,101154.06
2022-11-01T21:59:02.250Z,101145.13
2022-11-01T22:01:30.760Z,101149.56
2022-11-01T22:03:57.234Z,101148.53
2022-11-01T22:06:25.758Z,101154.44
2022-11-01T22:08:52.117Z,101149.84
2022-11-01T22:11:23.514Z,101141.88
2022-11-01T22:13:50.294Z,101154.13
2022-11-01T22:16:16.689Z,101152.19
2022-11-01T22:18:43.107Z,101148.63
2022-11-01T22:21:11.863Z,101159.03
2022-11-01T22:23:38.218Z,101153.59
2022-11-01T22:26:07.158Z,101149.31
2022-11-01T22:28:33.507Z,101147.63
2022-11-01T22:31:02.120Z,101146.44
2022-11-01T22:33:28.878Z,101150.34
2022-11-01T22:35:55.426Z,101146.06
2022-11-01T22:38:23.669Z,101144.59
2022-11-01T22:40:59.283Z,101146.22
2022-11-01T22:43:25.681Z,101148.09
2022-11-01T22:45:54.125Z,101152.28
2022-11-01T22:48:24.330Z,101157.03
2022-11-01T22:50:50.770Z,101163.00
2022-11-01T22:53:21.197Z,101162.28
2022-11-01T22:55:51.538Z,101155.22
2022-11-01T22:58:34.751Z,101155.78
2022-11-01T23:01:09.946Z,101167.50
2022-11-01T23:03:39.474Z,101165.25
2022-11-01T23:06:35.926Z,101167.28
2022-11-01T23:09:16.297Z,101166.56
2022-11-01T23:12:11.168Z,101167.81
2022-11-01T23:14:40.693Z,101161.84
2022-11-01T23:17:19.458Z,101165.41
2022-11-01T23:19:46.338Z,101166.56
2022-11-01T23:22:19.609Z,101163.28
2022-11-01T23:24:48.791Z,101166.56
2022-11-01T23:27:15.160Z,101167.41
2022-11-01T23:29:42.361Z,101166.09
2022-11-01T23:32:09.056Z,101163.00
2022-11-01T23:34:35.410Z,101171.16
2022-11-01T23:37:01.877Z,101175.97
2022-11-01T23:39:37.478Z,101180.69
2022-11-01T23:42:07.922Z,101166.50
2022-11-01T23:44:40.099Z,101172.63
2022-11-01T23:47:26.192Z,101153.06
2022-11-01T23:50:16.823Z,101163.47
2022-11-01T23:52:44.416Z,101155.84
2022-11-01T23:55:19.433Z,101158.44
2022-11-01T23:57:45.911Z,101154.75
